createdAt,value
2022-09-01T00:00:15.233Z,1.40
2022-09-01T00:03:07.453Z,1.50
2022-09-01T00:05:41.511Z,1.40
2022-09-01T00:08:18.077Z,1.30
2022-09-01T00:10:53.042Z,1.30
2022-09-01T00:13:27.497Z,1.40
2022-09-01T00:16:04.357Z,1.50
2022-09-01T00:18:38.479Z,1.30
2022-09-01T00:21:12.989Z,1.20
2022-09-01T00:23:47.249Z,1.20
2022-09-01T00:26:21.487Z,1.50
2022-09-01T00:28:56.194Z,1.20
2022-09-01T00:31:30.405Z,1.50
2022-09-01T00:34:05.266Z,1.30
2022-09-01T00:36:39.323Z,1.30
2022-09-01T00:39:13.679Z,1.30
2022-09-01T00:41:50.465Z,1.70
2022-09-01T00:44:29.596Z,1.20
2022-09-01T00:47:06.812Z,1.80
2022-09-01T00:49:46.586Z,1.40
2022-09-01T00:52:24.612Z,1.10
2022-09-01T00:55:04.083Z,1.20
2022-09-01T00:57:38.558Z,1.20
2022-09-01T01:00:18.851Z,1.20
2022-09-01T01:02:56.276Z,1.50
2022-09-01T01:05:38.626Z,1.20
2022-09-01T01:08:13.936Z,1.40
2022-09-01T01:10:48.239Z,1.30
2022-09-01T01:13:24.323Z,1.50
2022-09-01T01:15:59.695Z,1.30
2022-09-01T01:18:34.416Z,1.40
2022-09-01T01:21:28.982Z,1.40
2022-09-01T01:24:14.671Z,1.60
2022-09-01T01:26:48.699Z,1.40
2022-09-01T01:29:25.360Z,1.40
2022-09-01T01:32:00.786Z,1.40
2022-09-01T01:34:35.000Z,1.70
2022-09-01T01:37:11.048Z,1.40
2022-09-01T01:39:48.846Z,2.40
2022-09-01T01:42:25.278Z,1.30
2022-09-01T01:44:59.617Z,1.20
2022-09-01T01:47:34.121Z,1.20
2022-09-01T01:50:11.077Z,1.50
2022-09-01T01:52:45.818Z,1.60
2022-09-01T01:55:20.278Z,1.30
2022-09-01T01:57:54.440Z,1.30
2022-09-01T02:00:35.209Z,1.50
2022-09-01T02:03:09.688Z,1.30
2022-09-01T02:05:44.196Z,1.40
2022-09-01T02:08:21.088Z,1.90
2022-09-01T02:10:57.933Z,1.10
2022-09-01T02:13:32.117Z,1.10
2022-09-01T02:16:12.156Z,1.10
2022-09-01T02:18:49.983Z,1.70
2022-09-01T02:21:27.376Z,1.30
2022-09-01T02:24:08.585Z,1.40
2022-09-01T02:26:48.532Z,1.20
2022-09-01T02:29:26.658Z,1.30
2022-09-01T02:32:02.081Z,1.20
2022-09-01T02:34:39.525Z,1.40
2022-09-01T02:37:13.577Z,1.30
2022-09-01T02:39:47.676Z,1.20
2022-09-01T02:42:27.101Z,1.20
2022-09-01T02:45:02.730Z,1.10
2022-09-01T02:47:37.294Z,1.10
2022-09-01T02:50:17.131Z,1.20
2022-09-01T02:52:52.414Z,1.30
2022-09-01T02:55:26.748Z,1.20
2022-09-01T02:58:00.701Z,1.40
2022-09-01T03:00:39.496Z,1.50
2022-09-01T03:03:17.649Z,1.10
2022-09-01T03:05:55.590Z,1.20
2022-09-01T03:08:34.441Z,1.40
2022-09-01T03:11:13.168Z,1.10
2022-09-01T03:13:48.239Z,1.10
2022-09-01T03:16:24.069Z,1.00
2022-09-01T03:18:58.726Z,1.40
2022-09-01T03:21:33.192Z,1.50
2022-09-01T03:24:09.107Z,1.20
2022-09-01T03:26:43.732Z,1.10
2022-09-01T03:29:17.723Z,1.20
2022-09-01T03:31:51.943Z,1.30
2022-09-01T03:34:27.030Z,1.20
2022-09-01T03:37:02.175Z,1.20
2022-09-01T03:39:36.811Z,1.30
2022-09-01T03:42:12.698Z,1.30
2022-09-01T03:44:48.215Z,1.40
2022-09-01T03:47:22.409Z,1.60
2022-09-01T03:49:57.052Z,1.50
2022-09-01T03:52:31.241Z,1.40
2022-09-01T03:55:05.315Z,1.70
2022-09-01T03:57:42.712Z,1.20
2022-09-01T04:00:23.125Z,2.00
2022-09-01T04:03:00.736Z,1.70
2022-09-01T04:05:37.803Z,1.40
2022-09-01T04:08:14.182Z,1.60
2022-09-01T04:10:54.496Z,1.70
2022-09-01T04:13:32.589Z,1.80
2022-09-01T04:16:29.557Z,1.70
2022-09-01T04:19:16.220Z,1.70
2022-09-01T04:21:54.356Z,1.80
2022-09-01T04:24:31.201Z,1.70
2022-09-01T04:27:07.675Z,1.90
2022-09-01T04:29:42.016Z,2.00
2022-09-01T04:32:17.130Z,2.00
2022-09-01T04:34:57.121Z,1.80
2022-09-01T04:37:31.313Z,1.80
2022-09-01T04:40:11.108Z,1.70
2022-09-01T04:42:45.170Z,1.90
2022-09-01T04:45:28.095Z,1.70
2022-09-01T04:48:03.071Z,1.70
2022-09-01T04:50:37.691Z,1.70
2022-09-01T04:53:33.173Z,1.90
2022-09-01T04:56:10.823Z,1.80
2022-09-01T04:58:49.385Z,1.90
2022-09-01T05:01:27.027Z,1.70
2022-09-01T05:04:01.758Z,1.90
2022-09-01T05:06:49.196Z,1.80
2022-09-01T05:09:25.247Z,2.00
2022-09-01T05:12:31.626Z,1.90
2022-09-01T05:15:09.374Z,1.80
2022-09-01T05:17:44.137Z,1.60
2022-09-01T05:20:20.810Z,1.70
2022-09-01T05:22:56.667Z,1.50
2022-09-01T05:25:32.431Z,1.80
2022-09-01T05:28:09.969Z,1.70
2022-09-01T05:30:45.883Z,1.60
2022-09-01T05:33:22.095Z,1.30
2022-09-01T05:36:02.222Z,1.40
2022-09-01T05:38:36.903Z,1.80
2022-09-01T05:41:15.134Z,1.80
2022-09-01T05:43:57.882Z,1.60
2022-09-01T05:46:34.330Z,1.50
2022-09-01T05:49:09.512Z,1.90
2022-09-01T05:51:50.672Z,1.80
2022-09-01T05:54:29.787Z,1.60
2022-09-01T05:57:17.756Z,1.70
2022-09-01T05:59:57.947Z,1.60
2022-09-01T06:02:33.917Z,1.60
2022-09-01T06:05:11.123Z,1.80
2022-09-01T06:07:45.346Z,1.80
2022-09-01T06:10:20.405Z,2.00
2022-09-01T06:12:57.002Z,2.40
2022-09-01T06:15:32.465Z,1.70
2022-09-01T06:18:07.131Z,1.80
2022-09-01T06:20:46.930Z,1.80
2022-09-01T06:23:22.051Z,2.30
2022-09-01T06:25:56.268Z,1.90
2022-09-01T06:28:31.457Z,1.90
2022-09-01T06:31:12.218Z,2.20
2022-09-01T06:33:46.091Z,1.80
2022-09-01T06:36:22.082Z,1.70
2022-09-01T06:38:56.907Z,1.70
2022-09-01T06:41:31.611Z,1.50
2022-09-01T06:44:09.935Z,1.60
2022-09-01T06:46:51.992Z,1.40
2022-09-01T06:49:32.668Z,1.50
2022-09-01T06:52:09.656Z,1.70
2022-09-01T06:54:45.994Z,1.50
2022-09-01T07:00:21.029Z,1.80
2022-09-01T07:03:00.466Z,1.40
2022-09-01T07:06:00.903Z,1.30
2022-09-01T07:09:37.828Z,1.30
2022-09-01T07:12:27.885Z,1.40
2022-09-01T07:18:00.686Z,1.20
2022-09-01T07:21:02.823Z,1.20
2022-09-01T07:24:10.312Z,1.10
2022-09-01T07:26:30.468Z,0.90
2022-09-01T07:29:07.600Z,0.70
2022-09-01T07:32:43.466Z,0.80
2022-09-01T07:34:39.619Z,1.10
2022-09-01T07:43:22.537Z,1.00
2022-09-01T07:47:19.600Z,0.90
2022-09-01T07:50:24.296Z,0.70
2022-09-01T07:52:44.182Z,1.10
2022-09-01T07:55:20.324Z,1.10
2022-09-01T07:57:54.822Z,1.20
2022-09-01T08:00:31.779Z,1.10
2022-09-01T08:03:26.041Z,0.90
2022-09-01T08:06:09.228Z,0.80
2022-09-01T08:08:47.889Z,0.70
2022-09-01T08:11:58.075Z,0.60
2022-09-01T08:14:20.556Z,0.60
2022-09-01T08:16:55.399Z,0.60
2022-09-01T08:19:31.546Z,1.30
2022-09-01T08:22:16.594Z,1.10
2022-09-01T08:25:02.318Z,0.80
2022-09-01T08:27:39.315Z,0.80
2022-09-01T08:30:16.966Z,1.00
2022-09-01T08:32:51.960Z,1.00
2022-09-01T08:35:27.004Z,0.90
2022-09-01T08:38:02.330Z,0.70
2022-09-01T08:40:37.305Z,0.60
2022-09-01T08:43:26.194Z,1.20
2022-09-01T08:46:14.231Z,1.50
2022-09-01T08:49:24.071Z,1.20
2022-09-01T08:52:32.445Z,1.10
2022-09-01T08:55:22.248Z,1.50
2022-09-01T08:58:02.195Z,1.60
2022-09-01T09:01:01.268Z,1.20
2022-09-01T09:03:50.436Z,1.50
2022-09-01T09:06:34.446Z,1.50
2022-09-01T09:09:11.371Z,0.70
2022-09-01T09:12:29.700Z,1.00
2022-09-01T09:15:19.219Z,1.00
2022-09-01T09:18:34.423Z,0.80
2022-09-01T09:21:15.392Z,0.90
2022-09-01T09:23:58.010Z,1.40
2022-09-01T09:26:49.086Z,1.10
2022-09-01T09:29:23.477Z,0.50
2022-09-01T09:32:44.352Z,1.10
2022-09-01T09:35:27.542Z,1.50
2022-09-01T09:38:24.112Z,0.70
2022-09-01T09:41:19.865Z,0.60
2022-09-01T09:44:00.243Z,1.10
2022-09-01T09:46:43.647Z,0.90
2022-09-01T09:49:36.442Z,1.00
2022-09-01T09:52:26.089Z,1.40
2022-09-01T09:55:25.027Z,1.10
2022-09-01T09:58:10.057Z,1.10
2022-09-01T10:01:04.007Z,0.60
2022-09-01T10:03:49.108Z,0.80
2022-09-01T10:06:39.527Z,0.70
2022-09-01T10:09:38.495Z,2.00
2022-09-01T10:12:15.467Z,0.90
2022-09-01T10:14:57.911Z,2.40
2022-09-01T10:17:37.432Z,1.60
2022-09-01T10:20:22.373Z,1.90
2022-09-01T10:22:57.789Z,0.70
2022-09-01T10:25:39.941Z,0.50
2022-09-01T10:28:24.457Z,0.90
2022-09-01T10:31:00.301Z,0.80
2022-09-01T10:33:37.075Z,0.70
2022-09-01T10:36:13.365Z,0.90
2022-09-01T10:38:53.722Z,2.00
2022-09-01T10:42:00.503Z,1.80
2022-09-01T10:44:39.045Z,1.00
2022-09-01T10:47:30.238Z,1.60
2022-09-01T10:50:24.722Z,0.70
2022-09-01T10:53:10.408Z,0.80
2022-09-01T10:56:18.783Z,0.60
2022-09-01T10:59:37.366Z,0.70
2022-09-01T11:02:24.838Z,1.30
2022-09-01T11:05:27.992Z,0.90
2022-09-01T11:08:42.378Z,0.50
2022-09-01T11:11:41.496Z,0.60
2022-09-01T11:14:26.866Z,2.10
2022-09-01T11:17:25.373Z,1.40
2022-09-01T11:20:11.409Z,0.90
2022-09-01T11:22:59.855Z,0.70
2022-09-01T11:25:43.967Z,0.60
2022-09-01T11:28:43.025Z,0.30
2022-09-01T11:31:40.039Z,0.60
2022-09-01T11:34:23.743Z,0.50
2022-09-01T11:37:01.964Z,1.30
2022-09-01T11:39:44.230Z,1.70
2022-09-01T11:42:26.711Z,0.40
2022-09-01T11:45:06.998Z,0.50
2022-09-01T11:47:46.526Z,0.80
2022-09-01T11:50:28.136Z,0.80
2022-09-01T11:53:07.703Z,0.40
2022-09-01T11:55:46.512Z,1.30
2022-09-01T11:58:39.448Z,0.50
2022-09-01T12:01:33.671Z,1.00
2022-09-01T12:04:27.732Z,0.80
2022-09-01T12:07:05.644Z,0.60
2022-09-01T12:09:49.229Z,1.30
2022-09-01T12:12:39.623Z,1.20
2022-09-01T12:15:35.277Z,1.60
2022-09-01T12:18:22.101Z,2.40
2022-09-01T12:20:59.144Z,1.90
2022-09-01T12:23:36.401Z,1.20
2022-09-01T12:26:14.043Z,1.20
2022-09-01T12:28:49.941Z,0.60
2022-09-01T12:31:28.247Z,0.70
2022-09-01T12:34:04.746Z,0.80
2022-09-01T12:36:39.902Z,1.00
2022-09-01T12:39:35.593Z,0.80
2022-09-01T12:42:25.699Z,0.90
2022-09-01T12:45:02.695Z,0.30
2022-09-01T12:47:55.275Z,0.50
2022-09-01T12:50:46.871Z,0.30
2022-09-01T12:53:32.469Z,0.70
2022-09-01T12:56:33.147Z,0.90
2022-09-01T12:59:17.866Z,0.60
2022-09-01T13:01:54.824Z,0.60
2022-09-01T13:04:33.925Z,0.50
2022-09-01T13:07:10.041Z,0.50
2022-09-01T13:09:44.378Z,0.50
2022-09-01T13:12:25.156Z,0.50
2022-09-01T13:14:59.517Z,0.70
2022-09-01T13:17:33.648Z,1.20
2022-09-01T13:20:09.394Z,0.90
2022-09-01T13:22:44.818Z,0.70
2022-09-01T13:25:24.372Z,0.60
2022-09-01T13:28:00.545Z,0.60
2022-09-01T13:30:35.606Z,0.50
2022-09-01T13:33:20.423Z,0.50
2022-09-01T13:35:55.844Z,0.70
2022-09-01T13:38:32.266Z,1.70
2022-09-01T13:41:06.895Z,0.60
2022-09-01T13:43:41.500Z,0.60
2022-09-01T13:46:15.963Z,0.50
2022-09-01T13:49:42.111Z,1.00
2022-09-01T13:51:44.371Z,0.80
2022-09-01T13:54:19.058Z,0.40
2022-09-01T13:56:53.321Z,0.40
2022-09-01T13:59:27.490Z,0.50
2022-09-01T14:02:02.603Z,0.50
2022-09-01T14:04:36.565Z,0.40
2022-09-01T14:07:11.937Z,0.50
2022-09-01T14:09:45.867Z,0.40
2022-09-01T14:12:20.340Z,0.30
2022-09-01T14:17:51.187Z,0.40
2022-09-01T14:20:30.284Z,0.90
2022-09-01T14:23:08.493Z,0.40
2022-09-01T14:25:47.994Z,0.50
2022-09-01T14:28:24.066Z,0.40
2022-09-01T14:33:34.697Z,1.40
2022-09-01T14:36:18.094Z,0.50
2022-09-01T14:38:53.662Z,0.60
2022-09-01T14:41:29.176Z,0.40
2022-09-01T14:44:03.772Z,0.30
2022-09-01T14:46:39.992Z,0.40
2022-09-01T14:49:21.603Z,0.20
2022-09-01T14:52:12.557Z,0.30
2022-09-01T14:54:47.266Z,0.30
2022-09-01T14:57:31.312Z,0.50
2022-09-01T15:00:16.709Z,0.40
2022-09-01T15:02:51.308Z,0.30
2022-09-01T15:05:26.739Z,0.30
2022-09-01T15:08:00.876Z,0.30
2022-09-01T15:10:35.365Z,0.40
2022-09-01T15:13:09.740Z,0.50
2022-09-01T15:15:43.983Z,0.90
2022-09-01T15:18:18.664Z,0.60
2022-09-01T15:20:54.052Z,0.50
2022-09-01T15:23:29.610Z,1.20
2022-09-01T15:26:03.825Z,0.50
2022-09-01T15:28:38.026Z,0.40
2022-09-01T15:31:15.731Z,0.40
2022-09-01T15:33:52.530Z,0.40
2022-09-01T15:36:30.575Z,0.40
2022-09-01T15:39:05.333Z,0.50
2022-09-01T15:41:40.892Z,0.70
2022-09-01T15:44:15.157Z,0.60
2022-09-01T15:46:49.532Z,0.60
2022-09-01T15:49:24.341Z,0.50
2022-09-01T15:51:59.801Z,0.50
2022-09-01T15:54:38.140Z,0.50
2022-09-01T15:57:12.288Z,0.40
2022-09-01T15:59:46.308Z,0.60
2022-09-01T16:02:21.487Z,0.80
2022-09-01T16:04:57.044Z,0.60
2022-09-01T16:07:30.952Z,0.40
2022-09-01T16:10:06.403Z,0.30
2022-09-01T16:12:44.162Z,0.60
2022-09-01T16:15:23.221Z,1.30
2022-09-01T16:18:15.581Z,0.80
2022-09-01T16:21:00.137Z,0.50
2022-09-01T16:23:43.083Z,0.40
2022-09-01T16:26:18.093Z,0.50
2022-09-01T16:28:56.622Z,0.40
2022-09-01T16:31:34.364Z,0.50
2022-09-01T16:34:19.170Z,0.40
2022-09-01T16:37:03.186Z,0.50
2022-09-01T16:39:47.262Z,0.60
2022-09-01T16:42:37.794Z,0.40
2022-09-01T16:45:21.981Z,0.70
2022-09-01T16:48:10.212Z,0.40
2022-09-01T16:50:55.390Z,0.30
2022-09-01T16:53:56.332Z,0.60
2022-09-01T16:56:42.124Z,0.40
2022-09-01T16:59:32.413Z,0.30
2022-09-01T17:02:25.360Z,0.30
2022-09-01T17:05:09.878Z,0.70
2022-09-01T17:07:59.122Z,0.90
2022-09-01T17:10:47.677Z,0.90
2022-09-01T17:13:29.393Z,1.00
2022-09-01T17:16:12.063Z,0.60
2022-09-01T17:18:52.535Z,0.40
2022-09-01T17:21:32.989Z,0.30
2022-09-01T17:24:20.924Z,0.30
2022-09-01T17:26:57.228Z,0.40
2022-09-01T17:29:41.423Z,0.40
2022-09-01T17:32:31.861Z,0.50
2022-09-01T17:35:18.752Z,0.40
2022-09-01T17:38:10.277Z,0.40
2022-09-01T17:41:05.860Z,0.40
2022-09-01T17:43:55.565Z,0.40
2022-09-01T17:46:42.494Z,0.40
2022-09-01T17:49:27.334Z,0.50
2022-09-01T17:52:15.218Z,0.30
2022-09-01T17:55:00.480Z,0.40
2022-09-01T17:57:44.798Z,0.40
2022-09-01T18:00:27.274Z,0.50
2022-09-01T18:03:32.028Z,0.50
2022-09-01T18:06:17.051Z,0.40
2022-09-01T18:08:57.115Z,0.50
2022-09-01T18:11:48.570Z,0.40
2022-09-01T18:14:34.667Z,0.40
2022-09-01T18:17:16.360Z,0.40
2022-09-01T18:20:06.252Z,0.50
2022-09-01T18:22:49.491Z,0.40
2022-09-01T18:25:26.633Z,0.50
2022-09-01T18:28:01.380Z,0.30
2022-09-01T18:30:53.472Z,0.40
2022-09-01T18:33:37.157Z,0.50
2022-09-01T18:36:34.184Z,0.60
2022-09-01T18:39:17.777Z,0.40
2022-09-01T18:42:12.259Z,0.40
2022-09-01T18:45:05.257Z,0.50
2022-09-01T18:47:49.220Z,0.60
2022-09-01T18:50:33.637Z,0.90
2022-09-01T18:53:26.238Z,0.50
2022-09-01T18:56:15.600Z,0.50
2022-09-01T18:59:09.529Z,0.40
2022-09-01T19:01:53.584Z,0.60
2022-09-01T19:04:36.022Z,0.50
2022-09-01T19:07:27.495Z,0.70
2022-09-01T19:10:18.300Z,0.40
2022-09-01T19:13:02.866Z,0.60
2022-09-01T19:15:48.449Z,0.40
2022-09-01T19:18:33.028Z,0.40
2022-09-01T19:21:15.079Z,0.50
2022-09-01T19:23:58.762Z,0.50
2022-09-01T19:26:42.487Z,0.50
2022-09-01T19:29:21.897Z,0.60
2022-09-01T19:32:02.683Z,0.80
2022-09-01T19:34:46.397Z,0.50
2022-09-01T19:37:21.487Z,0.50
2022-09-01T19:39:56.188Z,0.50
2022-09-01T19:42:39.112Z,0.50
2022-09-01T19:45:20.772Z,0.50
2022-09-01T19:48:03.070Z,0.80
2022-09-01T19:50:47.628Z,0.60
2022-09-01T19:53:39.748Z,0.60
2022-09-01T19:56:19.654Z,0.80
2022-09-01T19:59:05.277Z,0.60
2022-09-01T20:01:50.088Z,0.40
2022-09-01T20:04:39.978Z,0.70
2022-09-01T20:07:28.965Z,0.70
2022-09-01T20:10:21.837Z,0.50
2022-09-01T20:13:16.090Z,0.60
2022-09-01T20:15:57.238Z,0.70
2022-09-01T20:18:37.749Z,0.60
2022-09-01T20:21:20.736Z,0.70
2022-09-01T20:24:03.157Z,0.60
2022-09-01T20:26:44.700Z,1.70
2022-09-01T20:29:32.544Z,0.80
2022-09-01T20:32:08.979Z,0.70
2022-09-01T20:34:53.038Z,0.70
2022-09-01T20:37:35.145Z,1.00
2022-09-01T20:40:14.752Z,0.60
2022-09-01T20:43:04.073Z,0.70
2022-09-01T20:45:38.382Z,0.60
2022-09-01T20:48:19.076Z,0.60
2022-09-01T20:51:02.223Z,0.60
2022-09-01T20:54:01.187Z,1.00
2022-09-01T20:56:46.973Z,0.70
2022-09-01T20:59:34.594Z,0.60
2022-09-01T21:02:37.737Z,0.70
2022-09-01T21:05:30.570Z,0.70
2022-09-01T21:08:26.883Z,0.70
2022-09-01T21:11:15.438Z,0.60
2022-09-01T21:14:05.023Z,0.70
2022-09-01T21:16:53.227Z,0.70
2022-09-01T21:19:40.801Z,0.80
2022-09-01T21:22:21.783Z,0.70
2022-09-01T21:24:56.923Z,0.60
2022-09-01T21:27:38.669Z,0.80
2022-09-01T21:30:17.120Z,0.60
2022-09-01T21:32:53.458Z,0.80
2022-09-01T21:35:28.190Z,0.70
2022-09-01T21:38:02.630Z,0.80
2022-09-01T21:40:38.185Z,0.60
2022-09-01T21:43:18.122Z,0.70
2022-09-01T21:45:52.942Z,0.50
2022-09-01T21:48:27.995Z,0.70
2022-09-01T21:51:04.638Z,0.70
2022-09-01T21:53:39.280Z,1.00
2022-09-01T21:56:13.463Z,0.80
2022-09-01T21:58:49.977Z,0.80
2022-09-01T22:01:26.149Z,1.00
2022-09-01T22:04:00.729Z,1.20
2022-09-01T22:06:36.105Z,1.00
2022-09-01T22:09:21.255Z,1.10
2022-09-01T22:11:56.211Z,1.10
2022-09-01T22:14:30.563Z,1.10
2022-09-01T22:17:05.082Z,1.40
2022-09-01T22:19:39.368Z,1.40
2022-09-01T22:22:13.604Z,1.10
2022-09-01T22:24:48.152Z,1.40
2022-09-01T22:27:23.666Z,1.20
2022-09-01T22:29:57.539Z,1.20
2022-09-01T22:32:34.954Z,1.40
2022-09-01T22:35:12.542Z,1.00
2022-09-01T22:37:47.576Z,1.30
2022-09-01T22:40:22.661Z,1.20
2022-09-01T22:42:56.710Z,1.50
2022-09-01T22:45:31.879Z,1.20
2022-09-01T22:48:06.751Z,1.20
2022-09-01T22:50:44.377Z,1.40
2022-09-01T22:53:20.899Z,1.90
2022-09-01T22:55:55.882Z,1.20
2022-09-01T22:58:30.404Z,1.20
2022-09-01T23:01:04.548Z,1.20
2022-09-01T23:03:39.186Z,1.30
2022-09-01T23:06:21.906Z,1.30
2022-09-01T23:09:04.615Z,1.20
2022-09-01T23:11:39.327Z,1.30
2022-09-01T23:14:13.990Z,1.40
2022-09-01T23:16:51.298Z,1.50
2022-09-01T23:19:26.986Z,1.30
2022-09-01T23:22:02.184Z,1.30
2022-09-01T23:24:36.379Z,1.20
2022-09-01T23:27:10.507Z,1.30
2022-09-01T23:29:44.566Z,1.10
2022-09-01T23:32:18.622Z,1.20
2022-09-01T23:34:53.687Z,1.40
2022-09-01T23:37:28.461Z,1.40
2022-09-01T23:40:03.210Z,1.60
2022-09-01T23:42:37.430Z,1.40
2022-09-01T23:45:13.816Z,1.10
2022-09-01T23:47:47.578Z,1.40
2022-09-01T23:50:21.888Z,1.30
2022-09-01T23:52:56.014Z,1.20
2022-09-01T23:55:29.952Z,1.20
2022-09-01T23:58:04.230Z,1.20
